createdAt,value
2019-03-06T00:00:52.846Z,8.33
2019-03-06T00:03:22.653Z,7.99
2019-03-06T00:05:52.045Z,7.91
2019-03-06T00:08:21.386Z,8.32
2019-03-06T00:10:50.770Z,8.81
2019-03-06T00:13:20.122Z,9.35
2019-03-06T00:15:49.702Z,9.56
2019-03-06T00:18:19.021Z,8.93
2019-03-06T00:20:48.432Z,9.11
2019-03-06T00:23:17.791Z,9.20
2019-03-06T00:25:47.192Z,9.24
2019-03-06T00:28:16.663Z,9.00
2019-03-06T00:30:46.064Z,9.40
2019-03-06T00:33:15.412Z,9.50
2019-03-06T00:35:46.841Z,9.58
2019-03-06T00:38:16.211Z,9.74
2019-03-06T00:41:02.100Z,9.97
2019-03-06T00:43:31.436Z,10.16
2019-03-06T00:46:00.857Z,10.05
2019-03-06T00:48:30.400Z,9.88
2019-03-06T00:50:59.785Z,9.77
2019-03-06T00:53:29.143Z,9.77
2019-03-06T00:55:58.533Z,9.89
2019-03-06T00:58:27.871Z,9.91
2019-03-06T01:00:57.522Z,8.86
2019-03-06T01:03:26.927Z,8.43
2019-03-06T01:05:56.301Z,9.09
2019-03-06T01:08:25.709Z,9.57
2019-03-06T01:10:55.084Z,9.89
2019-03-06T01:13:24.437Z,10.04
2019-03-06T01:15:53.833Z,10.14
2019-03-06T01:18:23.182Z,10.23
2019-03-06T01:20:52.633Z,10.33
2019-03-06T01:23:22.025Z,10.41
2019-03-06T01:25:51.455Z,10.46
2019-03-06T01:28:20.864Z,10.47
2019-03-06T01:30:50.236Z,10.52
2019-03-06T01:33:38.505Z,10.55
2019-03-06T01:36:26.981Z,10.67
2019-03-06T01:39:30.683Z,10.78
2019-03-06T01:42:08.258Z,10.71
2019-03-06T01:44:59.282Z,10.70
2019-03-06T01:47:28.675Z,10.67
2019-03-06T01:49:58.077Z,10.57
2019-03-06T01:52:27.496Z,10.42
2019-03-06T01:54:56.844Z,10.34
2019-03-06T01:57:26.281Z,9.50
2019-03-06T01:59:55.667Z,8.58
2019-03-06T02:02:25.114Z,8.34
2019-03-06T02:04:54.460Z,8.25
2019-03-06T02:07:24.261Z,8.12
2019-03-06T02:09:53.608Z,8.16
2019-03-06T02:12:22.978Z,8.73
2019-03-06T02:14:52.357Z,9.46
2019-03-06T02:17:21.694Z,9.99
2019-03-06T02:19:51.283Z,10.23
2019-03-06T02:22:20.674Z,10.21
2019-03-06T02:24:50.051Z,9.91
2019-03-06T02:27:19.433Z,9.45
2019-03-06T02:29:48.823Z,8.64
2019-03-06T02:32:18.261Z,8.13
2019-03-06T02:34:47.657Z,8.18
2019-03-06T02:37:16.996Z,7.74
2019-03-06T02:39:46.369Z,7.73
2019-03-06T02:42:15.723Z,7.57
2019-03-06T02:44:45.311Z,7.36
2019-03-06T02:47:14.678Z,7.36
2019-03-06T02:49:44.057Z,7.36
2019-03-06T02:52:13.396Z,7.54
2019-03-06T02:54:42.795Z,7.45
2019-03-06T02:57:12.412Z,7.60
2019-03-06T02:59:53.183Z,7.52
2019-03-06T03:02:29.489Z,7.43
2019-03-06T03:05:18.131Z,7.55
2019-03-06T03:07:47.518Z,7.70
2019-03-06T03:10:16.931Z,7.71
2019-03-06T03:12:46.281Z,7.43
2019-03-06T03:15:17.376Z,7.30
2019-03-06T03:17:46.720Z,7.25
2019-03-06T03:20:16.231Z,7.27
2019-03-06T03:22:45.598Z,7.42
2019-03-06T03:25:14.973Z,7.64
2019-03-06T03:27:44.406Z,7.43
2019-03-06T03:30:14.608Z,7.41
2019-03-06T03:32:43.979Z,7.39
2019-03-06T03:35:13.439Z,7.46
2019-03-06T03:37:42.781Z,7.39
2019-03-06T03:40:13.147Z,7.24
2019-03-06T03:42:42.497Z,7.29
2019-03-06T03:45:12.278Z,7.52
2019-03-06T03:47:41.674Z,7.56
2019-03-06T03:50:11.031Z,7.56
2019-03-06T03:52:40.700Z,8.33
2019-03-06T03:55:10.107Z,8.70
2019-03-06T03:57:39.517Z,9.00
2019-03-06T04:00:11.200Z,8.87
2019-03-06T04:02:40.584Z,9.08
2019-03-06T04:05:10.361Z,9.29
2019-03-06T04:07:39.784Z,8.92
2019-03-06T04:10:10.060Z,8.69
2019-03-06T04:12:39.484Z,9.20
2019-03-06T04:15:10.048Z,9.67
2019-03-06T04:17:39.725Z,9.48
2019-03-06T04:20:10.722Z,9.37
2019-03-06T04:22:40.175Z,9.33
2019-03-06T04:25:09.775Z,9.58
2019-03-06T04:27:39.178Z,9.81
2019-03-06T04:30:10.722Z,9.80
2019-03-06T04:32:40.102Z,9.55
2019-03-06T04:35:09.517Z,9.51
2019-03-06T04:37:38.949Z,9.49
2019-03-06T04:40:08.433Z,9.48
2019-03-06T04:42:37.862Z,9.36
2019-03-06T04:45:07.251Z,9.22
2019-03-06T04:47:36.713Z,9.09
2019-03-06T04:50:06.836Z,9.00
2019-03-06T04:52:36.269Z,8.92
2019-03-06T04:55:05.702Z,8.91
2019-03-06T04:57:35.110Z,8.91
2019-03-06T05:00:04.563Z,8.87
2019-03-06T05:02:33.988Z,8.85
2019-03-06T05:05:03.340Z,8.84
2019-03-06T05:07:32.728Z,8.88
2019-03-06T05:10:02.093Z,8.94
2019-03-06T05:12:31.485Z,9.06
2019-03-06T05:15:00.948Z,9.05
2019-03-06T05:17:40.093Z,9.02
2019-03-06T05:20:09.721Z,9.05
2019-03-06T05:22:39.140Z,9.05
2019-03-06T05:25:08.526Z,9.01
2019-03-06T05:27:37.862Z,8.95
2019-03-06T05:30:07.367Z,8.84
2019-03-06T05:32:38.028Z,8.83
2019-03-06T05:35:14.141Z,9.01
2019-03-06T05:38:10.646Z,9.01
2019-03-06T05:40:40.112Z,9.10
2019-03-06T05:43:09.526Z,9.00
2019-03-06T05:45:38.896Z,7.42
2019-03-06T05:48:08.282Z,7.42
2019-03-06T05:50:37.615Z,7.22
2019-03-06T05:53:06.955Z,8.30
2019-03-06T05:55:36.362Z,8.30
2019-03-06T05:58:05.724Z,8.77
2019-03-06T06:00:35.105Z,9.04
2019-03-06T06:03:04.504Z,9.18
2019-03-06T06:05:33.923Z,9.19
2019-03-06T06:08:03.274Z,8.99
2019-03-06T06:10:33.051Z,8.94
2019-03-06T06:13:02.440Z,7.99
2019-03-06T06:15:31.844Z,7.52
2019-03-06T06:18:01.231Z,7.52
2019-03-06T06:20:30.665Z,7.10
2019-03-06T06:23:08.563Z,7.21
2019-03-06T06:25:37.992Z,7.79
2019-03-06T06:28:07.352Z,8.30
2019-03-06T06:30:36.750Z,9.24
2019-03-06T06:33:06.113Z,9.18
2019-03-06T06:35:35.487Z,9.28
2019-03-06T06:38:04.851Z,9.38
2019-03-06T06:40:35.693Z,8.57
2019-03-06T06:43:05.309Z,7.96
2019-03-06T06:45:35.005Z,7.94
2019-03-06T06:48:21.516Z,7.97
2019-03-06T06:51:04.310Z,7.89
2019-03-06T06:53:56.226Z,7.88
2019-03-06T06:57:21.825Z,8.04
2019-03-06T07:00:48.794Z,8.17
2019-03-06T07:03:55.347Z,8.42
2019-03-06T07:06:32.809Z,8.52
2019-03-06T07:09:27.805Z,8.47
2019-03-06T07:12:16.275Z,8.44
2019-03-06T07:15:04.706Z,9.13
2019-03-06T07:17:53.108Z,9.76
2019-03-06T07:20:35.336Z,9.66
2019-03-06T07:23:26.852Z,9.08
2019-03-06T07:26:15.186Z,9.09
2019-03-06T07:28:52.450Z,9.06
2019-03-06T07:31:32.084Z,8.81
2019-03-06T07:34:07.448Z,8.93
2019-03-06T07:36:49.067Z,8.89
2019-03-06T07:39:22.301Z,8.92
2019-03-06T07:42:09.427Z,8.65
2019-03-06T07:44:59.768Z,8.54
2019-03-06T07:47:48.191Z,8.76
2019-03-06T07:50:48.843Z,8.83
2019-03-06T07:54:02.119Z,8.71
2019-03-06T07:56:46.095Z,8.52
2019-03-06T07:59:15.507Z,8.73
2019-03-06T08:01:51.451Z,8.92
2019-03-06T08:04:20.850Z,9.59
2019-03-06T08:06:57.101Z,9.86
2019-03-06T08:09:26.554Z,10.18
2019-03-06T08:12:08.531Z,10.13
2019-03-06T08:14:55.747Z,10.48
2019-03-06T08:17:49.987Z,10.50
2019-03-06T08:20:41.535Z,10.54
2019-03-06T08:23:28.978Z,10.59
2019-03-06T08:25:58.427Z,10.56
2019-03-06T08:28:27.852Z,11.26
2019-03-06T08:31:19.075Z,12.20
2019-03-06T08:33:48.547Z,11.93
2019-03-06T08:36:17.966Z,11.74
2019-03-06T08:38:47.354Z,13.07
2019-03-06T08:41:16.752Z,13.15
2019-03-06T08:43:46.110Z,14.75
2019-03-06T08:46:34.417Z,14.31
2019-03-06T08:49:28.670Z,14.10
2019-03-06T08:52:05.484Z,14.03
2019-03-06T08:54:41.454Z,13.38
2019-03-06T08:57:45.038Z,14.09
2019-03-06T09:00:45.638Z,14.91
2019-03-06T09:03:43.200Z,13.18
2019-03-06T09:06:17.988Z,13.52
2019-03-06T09:09:24.508Z,12.61
2019-03-06T09:12:05.429Z,12.92
2019-03-06T09:15:02.547Z,12.87
2019-03-06T09:17:38.322Z,12.07
2019-03-06T09:20:36.148Z,11.70
2019-03-06T09:23:34.218Z,11.68
2019-03-06T09:26:21.509Z,11.67
2019-03-06T09:29:09.751Z,11.50
2019-03-06T09:31:49.855Z,11.72
2019-03-06T09:34:28.353Z,12.33
2019-03-06T09:37:31.963Z,12.24
2019-03-06T09:40:19.026Z,12.28
2019-03-06T09:43:02.290Z,11.83
2019-03-06T09:46:02.553Z,12.01
2019-03-06T09:48:50.771Z,13.17
2019-03-06T09:51:48.372Z,13.50
2019-03-06T09:54:35.786Z,13.46
2019-03-06T09:57:26.884Z,12.84
2019-03-06T10:00:17.920Z,12.34
2019-03-06T10:03:21.641Z,12.92
2019-03-06T10:06:09.974Z,13.81
2019-03-06T10:08:49.351Z,15.14
2019-03-06T10:11:46.766Z,14.83
2019-03-06T10:14:23.547Z,14.53
2019-03-06T10:17:24.189Z,13.92
2019-03-06T10:20:03.314Z,14.55
2019-03-06T10:22:32.757Z,14.52
2019-03-06T10:25:02.473Z,14.85
2019-03-06T10:27:31.913Z,15.55
2019-03-06T10:30:01.288Z,15.17
2019-03-06T10:32:30.716Z,15.94
2019-03-06T10:35:00.470Z,15.00
2019-03-06T10:37:29.925Z,15.20
2019-03-06T10:39:59.383Z,14.90
2019-03-06T10:42:29.001Z,14.89
2019-03-06T10:44:58.424Z,14.50
2019-03-06T10:47:27.879Z,14.52
2019-03-06T10:49:57.650Z,14.15
2019-03-06T10:52:27.203Z,13.79
2019-03-06T10:54:57.693Z,13.85
2019-03-06T10:57:27.293Z,13.97
2019-03-06T10:59:57.469Z,13.60
2019-03-06T11:02:27.005Z,13.55
2019-03-06T11:05:12.924Z,13.37
2019-03-06T11:07:43.035Z,13.49
2019-03-06T11:10:12.759Z,13.14
2019-03-06T11:12:42.418Z,12.84
2019-03-06T11:15:12.403Z,13.08
2019-03-06T11:17:42.105Z,13.45
2019-03-06T11:20:14.047Z,13.36
2019-03-06T11:22:43.456Z,13.39
2019-03-06T11:25:12.958Z,13.19
2019-03-06T11:27:42.337Z,13.13
2019-03-06T11:30:17.375Z,13.25
2019-03-06T11:32:54.281Z,13.26
2019-03-06T11:35:18.267Z,13.29
2019-03-06T11:37:49.059Z,13.42
2019-03-06T11:40:18.519Z,13.07
2019-03-06T11:42:48.197Z,12.99
2019-03-06T11:45:18.175Z,13.05
2019-03-06T11:47:48.790Z,12.87
2019-03-06T11:50:19.037Z,13.17
2019-03-06T11:52:48.470Z,12.94
2019-03-06T11:55:18.562Z,13.07
2019-03-06T11:57:48.007Z,13.18
2019-03-06T12:00:43.381Z,13.13
2019-03-06T12:03:15.697Z,12.88
2019-03-06T12:05:45.406Z,12.81
2019-03-06T12:08:15.312Z,12.90
2019-03-06T12:10:44.894Z,12.99
2019-03-06T12:13:15.448Z,13.13
2019-03-06T12:15:46.748Z,13.05
2019-03-06T12:18:16.422Z,13.27
2019-03-06T12:20:46.126Z,13.16
2019-03-06T12:23:15.503Z,13.47
2019-03-06T12:25:45.011Z,14.15
2019-03-06T12:28:15.066Z,14.41
2019-03-06T12:30:44.575Z,14.94
2019-03-06T12:33:18.623Z,15.39
2019-03-06T12:35:48.082Z,15.66
2019-03-06T12:38:17.641Z,14.87
2019-03-06T12:40:47.160Z,14.74
2019-03-06T12:43:16.552Z,14.40
2019-03-06T12:46:12.651Z,14.82
2019-03-06T12:48:42.119Z,15.04
2019-03-06T12:51:11.714Z,14.83
2019-03-06T12:53:41.108Z,14.99
2019-03-06T12:56:10.628Z,14.70
2019-03-06T12:58:40.042Z,14.55
2019-03-06T13:01:09.466Z,14.30
2019-03-06T13:03:38.855Z,14.13
2019-03-06T13:06:08.291Z,14.08
2019-03-06T13:08:37.947Z,14.16
2019-03-06T13:11:07.423Z,14.83
2019-03-06T13:13:36.796Z,15.52
2019-03-06T13:16:06.238Z,15.70
2019-03-06T13:18:35.693Z,15.46
2019-03-06T13:21:06.556Z,15.73
2019-03-06T13:23:36.267Z,16.22
2019-03-06T13:26:10.242Z,16.64
2019-03-06T13:28:37.623Z,15.93
2019-03-06T13:31:07.310Z,16.49
2019-03-06T13:33:48.038Z,16.14
2019-03-06T13:36:17.536Z,16.08
2019-03-06T13:38:54.759Z,15.78
2019-03-06T13:41:18.232Z,16.26
2019-03-06T13:43:47.733Z,16.94
2019-03-06T13:46:17.259Z,17.77
2019-03-06T13:48:46.935Z,18.14
2019-03-06T13:51:16.562Z,18.42
2019-03-06T13:53:45.931Z,18.77
2019-03-06T13:56:15.377Z,18.11
2019-03-06T13:58:44.765Z,18.05
2019-03-06T14:01:14.225Z,18.28
2019-03-06T14:03:43.892Z,18.17
2019-03-06T14:06:13.304Z,17.80
2019-03-06T14:08:42.758Z,18.22
2019-03-06T14:11:12.187Z,18.42
2019-03-06T14:13:41.695Z,19.12
2019-03-06T14:16:11.072Z,19.32
2019-03-06T14:18:40.647Z,18.81
2019-03-06T14:21:10.090Z,17.78
2019-03-06T14:23:39.566Z,17.53
2019-03-06T14:26:09.195Z,17.53
2019-03-06T14:28:38.774Z,17.40
2019-03-06T14:31:10.529Z,17.30
2019-03-06T14:33:39.597Z,17.58
2019-03-06T14:36:09.004Z,18.27
2019-03-06T14:38:38.524Z,17.76
2019-03-06T14:41:09.628Z,18.10
2019-03-06T14:43:39.191Z,17.69
2019-03-06T14:46:16.207Z,18.01
2019-03-06T14:48:40.136Z,17.38
2019-03-06T14:51:09.508Z,17.31
2019-03-06T14:53:39.095Z,17.08
2019-03-06T14:56:08.635Z,17.26
2019-03-06T14:58:38.055Z,17.36
2019-03-06T15:01:07.534Z,17.38
2019-03-06T15:03:36.979Z,17.30
2019-03-06T15:06:06.501Z,17.80
2019-03-06T15:08:35.907Z,17.84
2019-03-06T15:11:05.451Z,18.20
2019-03-06T15:13:34.937Z,17.08
2019-03-06T15:16:04.335Z,17.05
2019-03-06T15:18:36.726Z,16.92
2019-03-06T15:21:06.158Z,16.90
2019-03-06T15:23:36.612Z,17.00
2019-03-06T15:26:06.142Z,16.87
2019-03-06T15:28:35.817Z,17.17
2019-03-06T15:31:05.189Z,17.38
2019-03-06T15:33:34.612Z,17.39
2019-03-06T15:36:04.001Z,17.58
2019-03-06T15:38:33.521Z,17.71
2019-03-06T15:41:03.068Z,18.03
2019-03-06T15:43:32.526Z,18.03
2019-03-06T15:46:02.016Z,17.78
2019-03-06T15:48:31.461Z,18.00
2019-03-06T15:51:00.848Z,17.81
2019-03-06T15:53:30.299Z,17.69
2019-03-06T15:55:59.803Z,17.42
2019-03-06T15:58:29.264Z,17.65
2019-03-06T16:00:58.773Z,17.85
2019-03-06T16:03:28.183Z,17.85
2019-03-06T16:05:57.713Z,17.77
2019-03-06T16:08:27.275Z,17.84
2019-03-06T16:10:56.713Z,17.37
2019-03-06T16:13:26.135Z,17.39
2019-03-06T16:15:55.865Z,17.38
2019-03-06T16:18:25.234Z,17.31
2019-03-06T16:20:54.729Z,17.08
2019-03-06T16:23:24.322Z,17.02
2019-03-06T16:25:53.914Z,16.90
2019-03-06T16:28:23.352Z,16.78
2019-03-06T16:30:52.748Z,16.81
2019-03-06T16:33:22.234Z,16.89
2019-03-06T16:35:51.771Z,16.90
2019-03-06T16:38:21.262Z,16.85
2019-03-06T16:40:50.706Z,16.98
2019-03-06T16:43:20.147Z,16.88
2019-03-06T16:45:49.509Z,16.58
2019-03-06T16:48:19.269Z,16.58
2019-03-06T16:50:49.011Z,16.55
2019-03-06T16:53:18.494Z,16.38
2019-03-06T16:55:47.861Z,16.27
2019-03-06T16:58:17.412Z,16.28
2019-03-06T17:00:46.894Z,16.23
2019-03-06T17:03:16.436Z,16.20
2019-03-06T17:05:46.355Z,16.35
2019-03-06T17:08:15.772Z,16.44
2019-03-06T17:10:45.171Z,16.46
2019-03-06T17:13:14.710Z,16.35
2019-03-06T17:15:44.149Z,16.29
2019-03-06T17:18:13.846Z,16.22
2019-03-06T17:20:43.300Z,16.08
2019-03-06T17:23:12.725Z,16.23
2019-03-06T17:25:42.129Z,16.29
2019-03-06T17:28:11.607Z,16.22
2019-03-06T17:30:41.062Z,16.15
2019-03-06T17:33:10.677Z,15.94
2019-03-06T17:35:40.242Z,16.18
2019-03-06T17:38:10.381Z,16.21
2019-03-06T17:40:39.780Z,16.18
2019-03-06T17:43:09.229Z,16.13
2019-03-06T17:45:38.606Z,16.46
2019-03-06T17:48:08.354Z,15.99
2019-03-06T17:50:37.734Z,15.87
2019-03-06T17:53:07.766Z,15.74
2019-03-06T17:55:37.162Z,16.04
2019-03-06T17:58:06.542Z,16.32
2019-03-06T18:00:41.363Z,16.49
2019-03-06T18:03:12.781Z,16.52
2019-03-06T18:05:42.252Z,15.63
2019-03-06T18:08:11.667Z,16.05
2019-03-06T18:10:41.197Z,16.45
2019-03-06T18:13:10.887Z,16.47
2019-03-06T18:15:40.423Z,16.61
2019-03-06T18:18:09.782Z,16.55
2019-03-06T18:20:39.223Z,16.45
2019-03-06T18:23:08.597Z,16.52
2019-03-06T18:25:38.139Z,16.73
2019-03-06T18:28:07.755Z,16.89
2019-03-06T18:30:37.216Z,16.91
2019-03-06T18:33:06.611Z,16.91
2019-03-06T18:35:36.019Z,16.95
2019-03-06T18:38:05.378Z,16.97
2019-03-06T18:40:34.846Z,16.91
2019-03-06T18:43:04.403Z,16.76
2019-03-06T18:45:33.819Z,16.56
2019-03-06T18:48:03.193Z,16.46
2019-03-06T18:50:32.599Z,16.42
2019-03-06T18:53:02.036Z,15.46
2019-03-06T18:55:31.443Z,15.31
2019-03-06T18:58:00.993Z,14.75
2019-03-06T19:00:30.435Z,14.72
2019-03-06T19:02:59.794Z,14.60
2019-03-06T19:05:29.192Z,14.31
2019-03-06T19:07:58.587Z,14.12
2019-03-06T19:10:27.956Z,13.88
2019-03-06T19:12:57.418Z,14.15
2019-03-06T19:15:26.815Z,14.69
2019-03-06T19:17:56.281Z,15.21
2019-03-06T19:20:25.699Z,15.61
2019-03-06T19:22:55.276Z,15.94
2019-03-06T19:25:24.841Z,15.88
2019-03-06T19:27:54.320Z,15.82
2019-03-06T19:30:23.681Z,15.78
2019-03-06T19:32:53.089Z,15.86
2019-03-06T19:35:22.466Z,16.09
2019-03-06T19:37:51.884Z,16.29
2019-03-06T19:40:21.236Z,16.45
2019-03-06T19:42:55.009Z,16.50
2019-03-06T19:45:24.452Z,16.43
2019-03-06T19:47:53.903Z,16.33
2019-03-06T19:50:25.415Z,16.30
2019-03-06T19:52:54.549Z,16.25
2019-03-06T19:55:24.723Z,16.29
2019-03-06T19:57:56.000Z,16.24
2019-03-06T20:00:25.658Z,16.33
2019-03-06T20:02:55.073Z,16.36
2019-03-06T20:05:24.959Z,16.40
2019-03-06T20:07:54.351Z,16.42
2019-03-06T20:10:23.874Z,16.53
2019-03-06T20:12:53.273Z,16.55
2019-03-06T20:15:22.642Z,16.53
2019-03-06T20:17:52.067Z,16.61
2019-03-06T20:20:21.546Z,16.54
2019-03-06T20:22:50.933Z,16.34
2019-03-06T20:25:22.671Z,16.08
2019-03-06T20:27:53.378Z,15.88
2019-03-06T20:30:22.888Z,15.68
2019-03-06T20:32:52.310Z,15.52
2019-03-06T20:35:22.408Z,15.47
2019-03-06T20:37:51.796Z,15.55
2019-03-06T20:40:21.362Z,15.69
2019-03-06T20:42:50.853Z,15.76
2019-03-06T20:45:20.274Z,15.85
2019-03-06T20:47:49.646Z,15.74
2019-03-06T20:50:19.149Z,15.32
2019-03-06T20:52:50.249Z,15.06
2019-03-06T20:55:19.617Z,14.79
2019-03-06T20:57:48.959Z,14.55
2019-03-06T21:00:20.389Z,14.40
2019-03-06T21:02:49.737Z,14.20
2019-03-06T21:05:19.240Z,14.29
2019-03-06T21:07:48.594Z,14.56
2019-03-06T21:10:18.128Z,14.79
2019-03-06T21:12:47.489Z,14.92
2019-03-06T21:15:17.366Z,14.97
2019-03-06T21:17:46.771Z,15.02
2019-03-06T21:20:17.660Z,15.20
2019-03-06T21:22:47.128Z,15.22
2019-03-06T21:25:17.675Z,14.22
2019-03-06T21:27:47.035Z,14.53
2019-03-06T21:30:29.855Z,14.99
2019-03-06T21:32:59.209Z,15.15
2019-03-06T21:35:28.671Z,15.30
2019-03-06T21:37:58.134Z,15.46
2019-03-06T21:40:27.554Z,15.64
2019-03-06T21:42:56.914Z,15.76
2019-03-06T21:45:26.381Z,15.78
2019-03-06T21:47:57.578Z,15.73
2019-03-06T21:50:26.944Z,15.56
2019-03-06T21:52:56.300Z,15.44
2019-03-06T21:55:25.713Z,15.41
2019-03-06T21:57:55.083Z,15.42
2019-03-06T22:00:24.580Z,15.35
2019-03-06T22:02:54.006Z,15.40
2019-03-06T22:05:23.428Z,15.36
2019-03-06T22:07:52.836Z,15.29
2019-03-06T22:10:22.166Z,14.22
2019-03-06T22:12:51.573Z,14.55
2019-03-06T22:15:20.987Z,14.74
2019-03-06T22:17:50.394Z,14.88
2019-03-06T22:20:19.815Z,15.07
2019-03-06T22:22:49.255Z,15.17
2019-03-06T22:25:19.025Z,15.23
2019-03-06T22:27:48.433Z,15.13
2019-03-06T22:30:18.523Z,14.24
2019-03-06T22:32:47.932Z,14.05
2019-03-06T22:35:17.284Z,14.47
2019-03-06T22:37:46.679Z,14.76
2019-03-06T22:40:16.451Z,14.84
2019-03-06T22:42:45.864Z,14.75
2019-03-06T22:45:15.385Z,14.80
2019-03-06T22:47:44.761Z,14.86
2019-03-06T22:50:14.515Z,14.90
2019-03-06T22:52:43.912Z,14.97
2019-03-06T22:55:15.018Z,15.03
2019-03-06T22:57:44.426Z,14.95
2019-03-06T23:00:48.922Z,14.90
2019-03-06T23:03:18.855Z,15.01
2019-03-06T23:05:48.204Z,15.04
2019-03-06T23:08:17.649Z,15.11
2019-03-06T23:10:47.038Z,15.16
2019-03-06T23:13:16.447Z,15.13
2019-03-06T23:15:45.880Z,15.13
2019-03-06T23:18:15.307Z,14.94
2019-03-06T23:20:44.680Z,15.12
2019-03-06T23:23:14.075Z,15.15
2019-03-06T23:25:43.424Z,15.15
2019-03-06T23:28:13.049Z,15.23
2019-03-06T23:30:42.403Z,15.33
2019-03-06T23:33:11.777Z,15.26
2019-03-06T23:35:41.111Z,14.90
2019-03-06T23:38:10.506Z,14.70
2019-03-06T23:40:39.862Z,14.95
2019-03-06T23:43:09.444Z,14.97
2019-03-06T23:45:38.783Z,14.59
2019-03-06T23:48:08.194Z,14.79
2019-03-06T23:50:37.565Z,14.91
2019-03-06T23:53:08.234Z,14.97
2019-03-06T23:55:37.603Z,13.90
2019-03-06T23:58:07.030Z,14.08
